McNair Village, Texas
Current Conditions -  °F | °C
As of 5:56 PM on Sunday 23 Nov 2014 (Local Time) from KHLR Reporting Station
Clear Clear  
Wind Chill: 75°   Ceiling: Unl
Heat Index: 75°   Visibility: 10mi
Dew Point: 36°   Wind: 10mph
Humidity: 24%   Direction: 240°WSW
Pressure: 29.56"   Gusts: NA
Location:  31.2151°N, 97.7405°W
Report Text: KHLR 232356Z AUTO 24009KT 10SM CLR 24/02 A2956 RMK AO2 SLP035 T02390022 10272 20239 53024 PWINO $
Loading
Personal Weather Stations






























Interactive Weather Map New forecast layout! Learn more

10-Day Weather Forecast

Advertisements
Track Severe Weather on mobile